createdAt,value
2022-11-29T07:05:15.202Z,93.78
2022-11-29T07:10:20.583Z,83.20
2022-11-29T07:15:25.074Z,78.43
2022-11-29T07:20:39.921Z,83.30
2022-11-29T07:25:54.863Z,88.13
2022-11-29T07:36:19.550Z,87.30
2022-11-29T07:41:31.083Z,87.70
2022-11-29T07:46:34.799Z,88.60
2022-11-29T07:51:40.039Z,82.80
2022-11-29T08:01:47.370Z,80.65
2022-11-29T08:06:52.780Z,81.93
2022-11-29T08:11:56.413Z,79.53
2022-11-29T08:17:00.587Z,79.55
2022-11-29T08:22:05.826Z,78.40
2022-11-29T08:27:13.046Z,86.10
2022-11-29T08:37:21.793Z,84.72
2022-11-29T08:47:38.696Z,75.95
2022-11-29T08:53:03.619Z,79.10
2022-11-29T08:58:12.361Z,81.07
2022-11-29T09:03:33.737Z,79.80
2022-11-29T09:08:39.047Z,78.18
2022-11-29T09:13:44.235Z,78.30
2022-11-29T09:18:51.863Z,76.63
2022-11-29T09:24:02.395Z,78.80
2022-11-29T09:29:07.817Z,75.45
2022-11-29T09:34:13.506Z,82.03
2022-11-29T09:39:18.695Z,80.13
2022-11-29T09:49:56.313Z,76.50
2022-11-29T09:55:21.476Z,76.82
2022-11-29T10:00:26.032Z,76.53
2022-11-29T10:05:33.354Z,79.07
2022-11-29T10:10:46.269Z,74.50
2022-11-29T10:15:54.019Z,77.05
2022-11-29T10:21:04.646Z,85.95
2022-11-29T10:26:12.935Z,81.47
2022-11-29T10:31:22.239Z,83.65
2022-11-29T10:36:30.693Z,81.20
2022-11-29T10:41:36.347Z,83.95
2022-11-29T10:46:40.136Z,78.10
2022-11-29T10:51:43.874Z,81.00
2022-11-29T10:56:49.750Z,79.70
2022-11-29T11:01:53.770Z,83.70
2022-11-29T11:07:02.355Z,83.85
2022-11-29T11:12:18.429Z,84.95
2022-11-29T11:17:26.448Z,83.15
2022-11-29T11:22:32.599Z,77.65
2022-11-29T11:27:49.373Z,83.07
2022-11-29T11:33:21.875Z,81.70
2022-11-29T11:38:27.368Z,88.00
2022-11-29T11:43:34.466Z,85.65
2022-11-29T11:48:54.324Z,84.00
2022-11-29T11:54:15.055Z,88.03
2022-11-29T11:59:56.050Z,88.72
2022-11-29T12:05:03.987Z,87.75
2022-11-29T12:10:17.251Z,96.15
2022-11-29T12:15:26.980Z,94.00
2022-11-29T12:20:43.540Z,90.93
2022-11-29T12:25:54.514Z,93.25
2022-11-29T12:31:21.506Z,97.80
2022-11-29T12:36:44.091Z,93.22
2022-11-29T12:41:59.295Z,94.63
2022-11-29T12:47:36.463Z,87.07
2022-11-29T12:52:53.953Z,96.32
2022-11-29T12:58:07.689Z,95.75
2022-11-29T13:03:32.050Z,91.57
2022-11-29T13:08:50.885Z,91.28
2022-11-29T13:14:20.197Z,91.85
2022-11-29T13:19:36.245Z,91.38
2022-11-29T13:24:43.596Z,96.47
2022-11-29T13:29:47.757Z,94.68
2022-11-29T13:34:55.128Z,95.38
2022-11-29T13:40:10.882Z,97.75
2022-11-29T13:45:34.570Z,95.72
2022-11-29T13:50:43.605Z,90.68
2022-11-29T13:55:49.942Z,93.97
2022-11-29T14:01:01.632Z,99.10
2022-11-29T14:06:34.468Z,91.93
2022-11-29T14:11:46.411Z,95.53
2022-11-29T14:16:53.758Z,99.55
2022-11-29T14:22:31.835Z,101.97
2022-11-29T14:28:00.144Z,99.15
2022-11-29T14:33:10.049Z,97.45
2022-11-29T14:38:25.047Z,99.88
2022-11-29T14:43:35.016Z,103.45
2022-11-29T14:48:39.283Z,102.70
2022-11-29T14:53:47.167Z,91.80
2022-11-29T14:59:30.503Z,104.72
2022-11-29T15:04:39.556Z,100.05
2022-11-29T15:09:46.707Z,95.97
2022-11-29T15:14:58.219Z,98.32
2022-11-29T15:20:17.639Z,98.70
2022-11-29T15:25:25.222Z,105.80
2022-11-29T15:30:33.140Z,104.15
2022-11-29T15:35:39.335Z,98.88
2022-11-29T15:40:52.914Z,95.57
2022-11-29T15:45:58.535Z,101.25
2022-11-29T15:51:06.470Z,101.10
2022-11-29T15:56:16.588Z,97.32
2022-11-29T16:01:24.314Z,105.25
2022-11-29T16:06:35.510Z,102.40
2022-11-29T16:11:41.729Z,99.63
2022-11-29T16:16:48.555Z,97.40
2022-11-29T16:22:17.688Z,98.53
2022-11-29T16:27:24.183Z,103.18
2022-11-29T16:32:31.741Z,90.82
2022-11-29T16:37:42.846Z,100.53
2022-11-29T16:43:07.481Z,102.90
2022-11-29T16:48:31.502Z,100.43
2022-11-29T16:53:37.394Z,101.93
2022-11-29T16:59:25.277Z,98.70
2022-11-29T17:04:13.084Z,101.95
2022-11-29T17:09:44.421Z,104.25
2022-11-29T17:14:51.590Z,107.00
2022-11-29T17:25:58.830Z,99.90
2022-11-29T17:31:11.776Z,98.85
2022-11-29T17:36:17.650Z,98.18
2022-11-29T17:41:23.897Z,103.20
2022-11-29T17:46:53.035Z,105.97
2022-11-29T17:52:08.435Z,106.32
2022-11-29T17:57:15.673Z,103.97
2022-11-29T18:15:30.141Z,110.45
2022-11-29T18:20:37.425Z,108.93
2022-11-29T18:26:01.835Z,115.93
2022-11-29T18:31:21.514Z,109.90
2022-11-29T18:36:27.855Z,116.55
2022-11-29T18:41:39.832Z,104.75
2022-11-29T18:46:50.330Z,103.90
2022-11-29T18:51:54.647Z,110.88
2022-11-29T18:56:58.805Z,112.53
2022-11-29T19:02:04.275Z,106.32
2022-11-29T19:07:08.313Z,107.32
2022-11-29T19:12:12.998Z,116.28
2022-11-29T19:17:21.851Z,108.65
2022-11-29T19:22:26.189Z,113.00
2022-11-29T19:27:30.792Z,110.33
2022-11-29T19:32:37.086Z,108.53
2022-11-29T19:37:44.173Z,117.30
2022-11-29T19:42:49.793Z,111.68
2022-11-29T19:47:56.741Z,111.63
2022-11-29T19:53:00.651Z,112.72
2022-11-29T19:58:07.192Z,113.30
2022-11-29T20:03:14.485Z,116.32
2022-11-29T20:08:47.665Z,109.78
2022-11-29T20:13:55.204Z,114.03
2022-11-29T20:19:01.853Z,117.28
2022-11-29T20:24:09.373Z,108.47
2022-11-29T20:29:14.489Z,111.40
2022-11-29T20:34:21.809Z,118.10
2022-11-29T20:39:36.198Z,111.25
2022-11-29T20:44:54.241Z,120.25
2022-11-29T20:50:00.376Z,126.90
2022-11-29T20:55:08.004Z,119.28
2022-11-29T21:00:14.106Z,121.07
2022-11-29T21:05:19.480Z,125.25
2022-11-29T21:10:23.508Z,125.70
2022-11-29T21:15:28.632Z,124.80
2022-11-29T21:20:34.975Z,120.50
2022-11-29T21:25:45.535Z,126.10
2022-11-29T21:30:50.062Z,131.00
2022-11-29T21:35:58.097Z,121.72
2022-11-29T21:41:01.978Z,134.32
2022-11-29T21:46:05.977Z,132.73
2022-11-29T21:51:13.854Z,131.63
2022-11-29T21:56:17.542Z,132.95
2022-11-29T22:01:22.151Z,132.75
2022-11-29T22:06:29.254Z,135.52
2022-11-29T22:11:34.421Z,133.35
2022-11-29T22:21:44.964Z,134.15
2022-11-29T22:26:49.948Z,134.65
2022-11-29T22:31:55.697Z,135.68
2022-11-29T22:37:00.895Z,138.93
